sensor_id;sensor_type;location;lat;lon;timestamp;temperature;humidity
60701;DHT22;46541;49.894;10.886;2024-01-06T00:02:06;6.00;99.90
60701;DHT22;46541;49.894;10.886;2024-01-06T00:04:33;5.90;99.90
60701;DHT22;46541;49.894;10.886;2024-01-06T00:07:00;5.90;99.90
60701;DHT22;46541;49.894;10.886;2024-01-06T00:09:27;5.90;99.90
60701;DHT22;46541;49.894;10.886;2024-01-06T00:11:53;5.80;99.90
60701;DHT22;46541;49.894;10.886;2024-01-06T00:14:20;5.80;99.90
60701;DHT22;46541;49.894;10.886;2024-01-06T00:16:47;5.70;99.90
60701;DHT22;46541;49.894;10.886;2024-01-06T00:19:13;5.80;99.90
60701;DHT22;46541;49.894;10.886;2024-01-06T00:21:40;5.70;99.90
60701;DHT22;46541;49.894;10.886;2024-01-06T00:24:07;5.70;99.90
60701;DHT22;46541;49.894;10.886;2024-01-06T00:26:34;5.70;99.90
60701;DHT22;46541;49.894;10.886;2024-01-06T00:29:00;5.60;99.90
60701;DHT22;46541;49.894;10.886;2024-01-06T00:31:27;5.60;99.90
60701;DHT22;46541;49.894;10.886;2024-01-06T00:33:54;5.60;99.90
60701;DHT22;46541;49.894;10.886;2024-01-06T00:36:21;5.60;99.90
60701;DHT22;46541;49.894;10.886;2024-01-06T00:38:48;5.60;99.90
60701;DHT22;46541;49.894;10.886;2024-01-06T00:41:14;5.60;99.90
60701;DHT22;46541;49.894;10.886;2024-01-06T00:43:42;5.60;99.90
60701;DHT22;46541;49.894;10.886;2024-01-06T00:46:09;5.50;99.90
60701;DHT22;46541;49.894;10.886;2024-01-06T00:48:35;5.50;99.90
60701;DHT22;46541;49.894;10.886;2024-01-06T00:51:02;5.50;99.90
60701;DHT22;46541;49.894;10.886;2024-01-06T00:53:30;5.40;99.90
60701;DHT22;46541;49.894;10.886;2024-01-06T00:55:56;5.50;99.90
60701;DHT22;46541;49.894;10.886;2024-01-06T00:58:23;5.50;99.90
60701;DHT22;46541;49.894;10.886;2024-01-06T01:00:50;5.50;99.90
60701;DHT22;46541;49.894;10.886;2024-01-06T01:03:46;5.50;99.90
60701;DHT22;46541;49.894;10.886;2024-01-06T01:06:22;5.50;99.90
60701;DHT22;46541;49.894;10.886;2024-01-06T01:08:49;5.50;99.90
60701;DHT22;46541;49.894;10.886;2024-01-06T01:11:16;5.50;99.90
60701;DHT22;46541;49.894;10.886;2024-01-06T01:13:43;5.40;99.90
60701;DHT22;46541;49.894;10.886;2024-01-06T01:16:09;5.50;99.90
60701;DHT22;46541;49.894;10.886;2024-01-06T01:18:37;5.50;99.90
60701;DHT22;46541;49.894;10.886;2024-01-06T01:21:04;5.50;99.90
60701;DHT22;46541;49.894;10.886;2024-01-06T01:23:31;5.50;99.90
60701;DHT22;46541;49.894;10.886;2024-01-06T01:25:57;5.50;99.90
60701;DHT22;46541;49.894;10.886;2024-01-06T01:28:24;5.50;99.90
60701;DHT22;46541;49.894;10.886;2024-01-06T01:30:51;5.50;99.90
60701;DHT22;46541;49.894;10.886;2024-01-06T01:33:18;5.50;99.90
60701;DHT22;46541;49.894;10.886;2024-01-06T01:35:45;5.50;99.90
60701;DHT22;46541;49.894;10.886;2024-01-06T01:38:12;5.50;99.90
60701;DHT22;46541;49.894;10.886;2024-01-06T01:40:39;5.50;99.90
60701;DHT22;46541;49.894;10.886;2024-01-06T01:43:05;5.50;99.90
60701;DHT22;46541;49.894;10.886;2024-01-06T01:45:33;5.50;99.90
60701;DHT22;46541;49.894;10.886;2024-01-06T01:48:00;5.40;99.90
60701;DHT22;46541;49.894;10.886;2024-01-06T01:50:27;5.40;99.90
60701;DHT22;46541;49.894;10.886;2024-01-06T01:52:54;5.40;99.90
60701;DHT22;46541;49.894;10.886;2024-01-06T01:55:21;5.40;99.90
60701;DHT22;46541;49.894;10.886;2024-01-06T01:57:48;5.40;99.90
60701;DHT22;46541;49.894;10.886;2024-01-06T02:00:15;5.40;99.90
60701;DHT22;46541;49.894;10.886;2024-01-06T02:02:42;5.40;99.90
60701;DHT22;46541;49.894;10.886;2024-01-06T02:05:09;5.40;99.90
60701;DHT22;46541;49.894;10.886;2024-01-06T02:07:36;5.40;99.90
60701;DHT22;46541;49.894;10.886;2024-01-06T02:10:03;5.40;99.90
60701;DHT22;46541;49.894;10.886;2024-01-06T02:12:30;5.50;99.90
60701;DHT22;46541;49.894;10.886;2024-01-06T02:14:57;5.50;99.90
60701;DHT22;46541;49.894;10.886;2024-01-06T02:17:23;5.60;99.90
60701;DHT22;46541;49.894;10.886;2024-01-06T02:19:52;5.60;99.90
60701;DHT22;46541;49.894;10.886;2024-01-06T02:22:19;5.60;99.90
60701;DHT22;46541;49.894;10.886;2024-01-06T02:24:45;5.60;99.90
60701;DHT22;46541;49.894;10.886;2024-01-06T02:27:14;5.60;99.90
60701;DHT22;46541;49.894;10.886;2024-01-06T02:29:41;5.50;99.90
60701;DHT22;46541;49.894;10.886;2024-01-06T02:32:07;5.40;99.90
60701;DHT22;46541;49.894;10.886;2024-01-06T02:34:34;5.40;99.90
60701;DHT22;46541;49.894;10.886;2024-01-06T02:37:01;5.40;99.90
60701;DHT22;46541;49.894;10.886;2024-01-06T02:39:28;5.30;99.90
60701;DHT22;46541;49.894;10.886;2024-01-06T02:41:55;5.30;99.90
60701;DHT22;46541;49.894;10.886;2024-01-06T02:44:21;5.30;99.90
60701;DHT22;46541;49.894;10.886;2024-01-06T02:46:48;5.30;99.90
60701;DHT22;46541;49.894;10.886;2024-01-06T02:49:15;5.30;99.90
60701;DHT22;46541;49.894;10.886;2024-01-06T02:51:42;5.30;99.90
60701;DHT22;46541;49.894;10.886;2024-01-06T02:54:09;5.20;99.90
60701;DHT22;46541;49.894;10.886;2024-01-06T02:56:35;5.20;99.90
60701;DHT22;46541;49.894;10.886;2024-01-06T02:59:02;5.20;99.90
60701;DHT22;46541;49.894;10.886;2024-01-06T03:01:31;5.20;99.90
60701;DHT22;46541;49.894;10.886;2024-01-06T03:03:58;5.30;99.90
60701;DHT22;46541;49.894;10.886;2024-01-06T03:06:25;5.20;99.90
60701;DHT22;46541;49.894;10.886;2024-01-06T03:08:52;5.20;99.90
60701;DHT22;46541;49.894;10.886;2024-01-06T03:11:19;5.30;99.90
60701;DHT22;46541;49.894;10.886;2024-01-06T03:13:45;5.20;99.90
60701;DHT22;46541;49.894;10.886;2024-01-06T03:16:12;5.20;99.90
60701;DHT22;46541;49.894;10.886;2024-01-06T03:18:39;5.20;99.90
60701;DHT22;46541;49.894;10.886;2024-01-06T03:21:17;5.10;99.90
60701;DHT22;46541;49.894;10.886;2024-01-06T03:23:44;5.10;99.90
60701;DHT22;46541;49.894;10.886;2024-01-06T03:26:11;5.10;99.90
60701;DHT22;46541;49.894;10.886;2024-01-06T03:28:38;5.10;99.90
60701;DHT22;46541;49.894;10.886;2024-01-06T03:31:04;5.20;99.90
60701;DHT22;46541;49.894;10.886;2024-01-06T03:33:31;5.20;99.90
60701;DHT22;46541;49.894;10.886;2024-01-06T03:36:04;5.20;99.90
60701;DHT22;46541;49.894;10.886;2024-01-06T03:38:31;5.20;99.90
60701;DHT22;46541;49.894;10.886;2024-01-06T03:40:58;5.20;99.90
60701;DHT22;46541;49.894;10.886;2024-01-06T03:43:25;5.20;99.90
60701;DHT22;46541;49.894;10.886;2024-01-06T03:45:52;5.30;99.90
60701;DHT22;46541;49.894;10.886;2024-01-06T03:48:18;5.20;99.90
60701;DHT22;46541;49.894;10.886;2024-01-06T03:50:46;5.20;99.90
60701;DHT22;46541;49.894;10.886;2024-01-06T03:53:13;5.20;99.90
60701;DHT22;46541;49.894;10.886;2024-01-06T03:55:40;5.20;99.90
60701;DHT22;46541;49.894;10.886;2024-01-06T03:58:07;5.20;99.90
60701;DHT22;46541;49.894;10.886;2024-01-06T04:00:33;5.20;99.90
60701;DHT22;46541;49.894;10.886;2024-01-06T04:03:00;5.20;99.90
60701;DHT22;46541;49.894;10.886;2024-01-06T04:05:27;5.20;99.90
60701;DHT22;46541;49.894;10.886;2024-01-06T04:07:54;5.20;99.90
60701;DHT22;46541;49.894;10.886;2024-01-06T04:10:21;5.20;99.90
60701;DHT22;46541;49.894;10.886;2024-01-06T04:12:47;5.30;99.90
60701;DHT22;46541;49.894;10.886;2024-01-06T04:15:14;5.20;99.90
60701;DHT22;46541;49.894;10.886;2024-01-06T04:17:41;5.20;99.90
60701;DHT22;46541;49.894;10.886;2024-01-06T04:20:09;5.10;99.90
60701;DHT22;46541;49.894;10.886;2024-01-06T04:22:39;5.20;99.90
60701;DHT22;46541;49.894;10.886;2024-01-06T04:25:06;5.10;99.90
60701;DHT22;46541;49.894;10.886;2024-01-06T04:27:32;5.10;99.90
60701;DHT22;46541;49.894;10.886;2024-01-06T04:30:00;5.10;99.90
60701;DHT22;46541;49.894;10.886;2024-01-06T04:32:27;5.10;99.90
60701;DHT22;46541;49.894;10.886;2024-01-06T04:34:54;5.10;99.90
60701;DHT22;46541;49.894;10.886;2024-01-06T04:37:23;5.10;99.90
60701;DHT22;46541;49.894;10.886;2024-01-06T04:39:50;5.10;99.90
60701;DHT22;46541;49.894;10.886;2024-01-06T04:42:16;5.10;99.90
60701;DHT22;46541;49.894;10.886;2024-01-06T04:44:43;5.10;99.90
60701;DHT22;46541;49.894;10.886;2024-01-06T04:47:10;5.20;99.90
60701;DHT22;46541;49.894;10.886;2024-01-06T04:49:37;5.10;99.90
60701;DHT22;46541;49.894;10.886;2024-01-06T04:52:04;5.10;99.90
60701;DHT22;46541;49.894;10.886;2024-01-06T04:54:30;5.00;99.90
60701;DHT22;46541;49.894;10.886;2024-01-06T04:56:58;5.10;99.90
60701;DHT22;46541;49.894;10.886;2024-01-06T04:59:25;5.00;99.90
60701;DHT22;46541;49.894;10.886;2024-01-06T05:01:53;5.00;99.90
60701;DHT22;46541;49.894;10.886;2024-01-06T05:04:20;5.00;99.90
60701;DHT22;46541;49.894;10.886;2024-01-06T05:06:47;5.10;99.90
60701;DHT22;46541;49.894;10.886;2024-01-06T05:09:13;5.10;99.90
60701;DHT22;46541;49.894;10.886;2024-01-06T05:11:40;5.00;99.90
60701;DHT22;46541;49.894;10.886;2024-01-06T05:14:09;5.00;99.90
60701;DHT22;46541;49.894;10.886;2024-01-06T05:16:36;5.00;99.90
60701;DHT22;46541;49.894;10.886;2024-01-06T05:19:03;4.90;99.90
60701;DHT22;46541;49.894;10.886;2024-01-06T05:21:30;4.80;99.90
60701;DHT22;46541;49.894;10.886;2024-01-06T05:23:57;4.80;99.90
60701;DHT22;46541;49.894;10.886;2024-01-06T05:26:23;4.80;99.90
60701;DHT22;46541;49.894;10.886;2024-01-06T05:28:51;4.70;99.90
60701;DHT22;46541;49.894;10.886;2024-01-06T05:31:18;4.70;99.90
60701;DHT22;46541;49.894;10.886;2024-01-06T05:33:44;4.70;99.90
60701;DHT22;46541;49.894;10.886;2024-01-06T05:36:11;4.70;99.90
60701;DHT22;46541;49.894;10.886;2024-01-06T05:38:38;4.70;99.90
60701;DHT22;46541;49.894;10.886;2024-01-06T05:41:05;4.70;99.90
60701;DHT22;46541;49.894;10.886;2024-01-06T05:43:35;4.70;99.90
60701;DHT22;46541;49.894;10.886;2024-01-06T05:46:01;4.70;99.90
60701;DHT22;46541;49.894;10.886;2024-01-06T05:48:28;4.60;99.90
60701;DHT22;46541;49.894;10.886;2024-01-06T05:50:55;4.60;99.90
60701;DHT22;46541;49.894;10.886;2024-01-06T05:53:22;4.50;99.90
60701;DHT22;46541;49.894;10.886;2024-01-06T05:55:49;4.50;99.90
60701;DHT22;46541;49.894;10.886;2024-01-06T05:58:17;4.50;99.90
60701;DHT22;46541;49.894;10.886;2024-01-06T06:00:43;4.50;99.90
60701;DHT22;46541;49.894;10.886;2024-01-06T06:03:12;4.40;99.90
60701;DHT22;46541;49.894;10.886;2024-01-06T06:05:39;4.40;99.90
60701;DHT22;46541;49.894;10.886;2024-01-06T06:08:06;4.40;99.90
60701;DHT22;46541;49.894;10.886;2024-01-06T06:10:32;4.40;99.90
60701;DHT22;46541;49.894;10.886;2024-01-06T06:13:07;4.40;99.90
60701;DHT22;46541;49.894;10.886;2024-01-06T06:15:37;4.30;99.90
60701;DHT22;46541;49.894;10.886;2024-01-06T06:18:04;4.30;99.90
60701;DHT22;46541;49.894;10.886;2024-01-06T06:20:31;4.30;99.90
60701;DHT22;46541;49.894;10.886;2024-01-06T06:22:58;4.30;99.90
60701;DHT22;46541;49.894;10.886;2024-01-06T06:25:25;4.20;99.90
60701;DHT22;46541;49.894;10.886;2024-01-06T06:27:52;4.20;99.90
60701;DHT22;46541;49.894;10.886;2024-01-06T06:30:19;4.20;99.90
60701;DHT22;46541;49.894;10.886;2024-01-06T06:32:45;4.20;99.90
60701;DHT22;46541;49.894;10.886;2024-01-06T06:35:13;4.10;99.90
60701;DHT22;46541;49.894;10.886;2024-01-06T06:37:39;4.20;99.90
60701;DHT22;46541;49.894;10.886;2024-01-06T06:40:07;4.10;99.90
60701;DHT22;46541;49.894;10.886;2024-01-06T06:42:33;4.10;99.90
60701;DHT22;46541;49.894;10.886;2024-01-06T06:45:00;4.10;99.90
60701;DHT22;46541;49.894;10.886;2024-01-06T06:47:27;4.00;99.90
60701;DHT22;46541;49.894;10.886;2024-01-06T06:49:54;4.00;99.90
60701;DHT22;46541;49.894;10.886;2024-01-06T06:52:21;3.90;99.90
60701;DHT22;46541;49.894;10.886;2024-01-06T06:54:48;4.00;99.90
60701;DHT22;46541;49.894;10.886;2024-01-06T06:57:15;4.00;99.90
60701;DHT22;46541;49.894;10.886;2024-01-06T06:59:42;4.00;99.90
60701;DHT22;46541;49.894;10.886;2024-01-06T07:02:09;4.10;99.90
60701;DHT22;46541;49.894;10.886;2024-01-06T07:04:36;4.00;99.90
60701;DHT22;46541;49.894;10.886;2024-01-06T07:07:03;4.00;99.90
60701;DHT22;46541;49.894;10.886;2024-01-06T07:09:30;4.00;99.90
60701;DHT22;46541;49.894;10.886;2024-01-06T07:11:56;4.00;99.90
60701;DHT22;46541;49.894;10.886;2024-01-06T07:14:23;3.90;99.90
60701;DHT22;46541;49.894;10.886;2024-01-06T07:16:50;4.00;99.90
60701;DHT22;46541;49.894;10.886;2024-01-06T07:19:17;3.90;99.90
60701;DHT22;46541;49.894;10.886;2024-01-06T07:21:44;3.90;99.90
60701;DHT22;46541;49.894;10.886;2024-01-06T07:24:11;3.90;99.90
60701;DHT22;46541;49.894;10.886;2024-01-06T07:26:38;3.90;99.90
60701;DHT22;46541;49.894;10.886;2024-01-06T07:29:04;3.80;99.90
60701;DHT22;46541;49.894;10.886;2024-01-06T07:31:31;3.80;99.90
60701;DHT22;46541;49.894;10.886;2024-01-06T07:33:58;3.80;99.90
60701;DHT22;46541;49.894;10.886;2024-01-06T07:36:25;3.70;99.90
60701;DHT22;46541;49.894;10.886;2024-01-06T07:38:52;3.70;99.90
60701;DHT22;46541;49.894;10.886;2024-01-06T07:41:18;3.70;99.90
60701;DHT22;46541;49.894;10.886;2024-01-06T07:43:45;3.70;99.90
60701;DHT22;46541;49.894;10.886;2024-01-06T07:46:12;3.70;99.90
60701;DHT22;46541;49.894;10.886;2024-01-06T07:48:39;3.60;99.90
60701;DHT22;46541;49.894;10.886;2024-01-06T07:51:06;3.70;99.90
60701;DHT22;46541;49.894;10.886;2024-01-06T07:53:32;3.60;99.90
60701;DHT22;46541;49.894;10.886;2024-01-06T07:55:59;3.60;99.90
60701;DHT22;46541;49.894;10.886;2024-01-06T07:58:26;3.50;99.90
60701;DHT22;46541;49.894;10.886;2024-01-06T08:00:55;3.50;99.90
60701;DHT22;46541;49.894;10.886;2024-01-06T08:03:21;3.50;99.90
60701;DHT22;46541;49.894;10.886;2024-01-06T08:05:48;3.50;99.90
60701;DHT22;46541;49.894;10.886;2024-01-06T08:08:16;3.50;99.90
60701;DHT22;46541;49.894;10.886;2024-01-06T08:10:43;3.50;99.90
60701;DHT22;46541;49.894;10.886;2024-01-06T08:13:10;3.50;99.90
60701;DHT22;46541;49.894;10.886;2024-01-06T08:15:37;3.50;99.90
60701;DHT22;46541;49.894;10.886;2024-01-06T08:18:04;3.60;99.90
60701;DHT22;46541;49.894;10.886;2024-01-06T08:20:31;3.60;99.90
60701;DHT22;46541;49.894;10.886;2024-01-06T08:22:58;3.70;99.90
60701;DHT22;46541;49.894;10.886;2024-01-06T08:25:24;3.80;99.90
60701;DHT22;46541;49.894;10.886;2024-01-06T08:27:51;3.90;99.90
60701;DHT22;46541;49.894;10.886;2024-01-06T08:30:19;4.00;99.90
60701;DHT22;46541;49.894;10.886;2024-01-06T08:32:46;4.00;99.90
60701;DHT22;46541;49.894;10.886;2024-01-06T08:35:13;4.00;99.90
60701;DHT22;46541;49.894;10.886;2024-01-06T08:37:43;4.00;99.90
60701;DHT22;46541;49.894;10.886;2024-01-06T08:40:11;4.10;99.90
60701;DHT22;46541;49.894;10.886;2024-01-06T08:42:37;4.20;99.90
60701;DHT22;46541;49.894;10.886;2024-01-06T08:45:05;4.20;99.90
60701;DHT22;46541;49.894;10.886;2024-01-06T08:47:31;4.30;99.90
60701;DHT22;46541;49.894;10.886;2024-01-06T08:49:59;4.30;99.90
60701;DHT22;46541;49.894;10.886;2024-01-06T08:52:26;4.30;99.90
60701;DHT22;46541;49.894;10.886;2024-01-06T08:54:52;4.40;99.90
60701;DHT22;46541;49.894;10.886;2024-01-06T08:57:20;4.50;99.90
60701;DHT22;46541;49.894;10.886;2024-01-06T08:59:47;4.50;99.90
60701;DHT22;46541;49.894;10.886;2024-01-06T09:02:14;4.50;99.90
60701;DHT22;46541;49.894;10.886;2024-01-06T09:04:40;4.60;99.90
60701;DHT22;46541;49.894;10.886;2024-01-06T09:07:07;4.70;99.90
60701;DHT22;46541;49.894;10.886;2024-01-06T09:09:34;4.70;99.90
60701;DHT22;46541;49.894;10.886;2024-01-06T09:12:01;4.70;99.90
60701;DHT22;46541;49.894;10.886;2024-01-06T09:14:28;4.80;99.90
60701;DHT22;46541;49.894;10.886;2024-01-06T09:16:55;4.80;99.90
60701;DHT22;46541;49.894;10.886;2024-01-06T09:19:22;5.00;99.90
60701;DHT22;46541;49.894;10.886;2024-01-06T09:21:48;5.10;99.90
60701;DHT22;46541;49.894;10.886;2024-01-06T09:24:15;5.20;99.90
60701;DHT22;46541;49.894;10.886;2024-01-06T09:26:42;5.30;99.90
60701;DHT22;46541;49.894;10.886;2024-01-06T09:29:10;5.40;99.90
60701;DHT22;46541;49.894;10.886;2024-01-06T09:31:38;5.50;99.90
60701;DHT22;46541;49.894;10.886;2024-01-06T09:34:09;5.60;99.90
60701;DHT22;46541;49.894;10.886;2024-01-06T09:36:37;5.60;99.90
60701;DHT22;46541;49.894;10.886;2024-01-06T09:39:04;5.70;99.90
60701;DHT22;46541;49.894;10.886;2024-01-06T09:41:31;5.70;99.90
60701;DHT22;46541;49.894;10.886;2024-01-06T09:43:58;5.80;99.90
60701;DHT22;46541;49.894;10.886;2024-01-06T09:46:26;5.90;99.90
60701;DHT22;46541;49.894;10.886;2024-01-06T09:48:54;6.00;99.90
60701;DHT22;46541;49.894;10.886;2024-01-06T09:51:22;6.00;99.90
60701;DHT22;46541;49.894;10.886;2024-01-06T09:53:59;5.90;99.90
60701;DHT22;46541;49.894;10.886;2024-01-06T09:56:28;6.00;99.90
60701;DHT22;46541;49.894;10.886;2024-01-06T09:58:58;6.00;99.90
60701;DHT22;46541;49.894;10.886;2024-01-06T10:01:25;6.10;99.90
60701;DHT22;46541;49.894;10.886;2024-01-06T10:03:52;6.10;99.90
60701;DHT22;46541;49.894;10.886;2024-01-06T10:06:19;6.20;99.90
60701;DHT22;46541;49.894;10.886;2024-01-06T10:08:52;6.30;99.90
60701;DHT22;46541;49.894;10.886;2024-01-06T10:11:20;6.30;99.90
60701;DHT22;46541;49.894;10.886;2024-01-06T10:13:52;6.50;99.90
60701;DHT22;46541;49.894;10.886;2024-01-06T10:16:19;6.50;99.90
60701;DHT22;46541;49.894;10.886;2024-01-06T10:18:46;6.60;99.90
60701;DHT22;46541;49.894;10.886;2024-01-06T10:21:20;6.60;99.90
60701;DHT22;46541;49.894;10.886;2024-01-06T10:23:48;6.70;99.90
60701;DHT22;46541;49.894;10.886;2024-01-06T10:26:15;6.60;99.90
60701;DHT22;46541;49.894;10.886;2024-01-06T10:28:42;6.60;99.90
60701;DHT22;46541;49.894;10.886;2024-01-06T10:31:09;6.70;99.90
60701;DHT22;46541;49.894;10.886;2024-01-06T10:33:36;6.70;99.90
60701;DHT22;46541;49.894;10.886;2024-01-06T10:36:03;6.70;99.90
60701;DHT22;46541;49.894;10.886;2024-01-06T10:38:33;6.70;99.90
60701;DHT22;46541;49.894;10.886;2024-01-06T10:41:03;6.80;99.90
60701;DHT22;46541;49.894;10.886;2024-01-06T10:43:34;6.80;99.90
60701;DHT22;46541;49.894;10.886;2024-01-06T10:46:04;6.90;99.90
60701;DHT22;46541;49.894;10.886;2024-01-06T10:48:32;6.90;99.90
60701;DHT22;46541;49.894;10.886;2024-01-06T10:51:03;7.00;99.90
60701;DHT22;46541;49.894;10.886;2024-01-06T10:53:34;7.00;99.90
60701;DHT22;46541;49.894;10.886;2024-01-06T10:56:06;7.00;99.90
60701;DHT22;46541;49.894;10.886;2024-01-06T10:58:46;7.00;99.90
60701;DHT22;46541;49.894;10.886;2024-01-06T11:01:14;7.00;99.90
60701;DHT22;46541;49.894;10.886;2024-01-06T11:03:48;7.10;99.90
60701;DHT22;46541;49.894;10.886;2024-01-06T11:06:17;7.20;99.90
60701;DHT22;46541;49.894;10.886;2024-01-06T11:09:11;7.20;99.90
60701;DHT22;46541;49.894;10.886;2024-01-06T11:11:40;7.30;99.90
60701;DHT22;46541;49.894;10.886;2024-01-06T11:14:24;7.30;99.90
60701;DHT22;46541;49.894;10.886;2024-01-06T11:16:52;7.30;99.90
60701;DHT22;46541;49.894;10.886;2024-01-06T11:22:29;7.40;99.90
60701;DHT22;46541;49.894;10.886;2024-01-06T11:25:06;7.40;99.90
60701;DHT22;46541;49.894;10.886;2024-01-06T11:27:34;7.30;99.90
60701;DHT22;46541;49.894;10.886;2024-01-06T11:30:03;7.40;99.90
60701;DHT22;46541;49.894;10.886;2024-01-06T11:32:38;7.40;99.90
60701;DHT22;46541;49.894;10.886;2024-01-06T11:35:15;7.50;99.90
60701;DHT22;46541;49.894;10.886;2024-01-06T11:45:25;7.80;99.90
60701;DHT22;46541;49.894;10.886;2024-01-06T11:47:58;7.70;99.90
60701;DHT22;46541;49.894;10.886;2024-01-06T11:50:33;7.80;99.90
60701;DHT22;46541;49.894;10.886;2024-01-06T11:53:01;7.80;99.90
60701;DHT22;46541;49.894;10.886;2024-01-06T11:55:29;7.80;99.90
60701;DHT22;46541;49.894;10.886;2024-01-06T11:57:59;7.80;99.90
60701;DHT22;46541;49.894;10.886;2024-01-06T12:00:30;7.90;99.90
60701;DHT22;46541;49.894;10.886;2024-01-06T12:02:58;8.00;99.90
60701;DHT22;46541;49.894;10.886;2024-01-06T12:05:27;8.00;99.90
60701;DHT22;46541;49.894;10.886;2024-01-06T12:07:58;8.00;99.90
60701;DHT22;46541;49.894;10.886;2024-01-06T12:10:26;8.00;99.90
60701;DHT22;46541;49.894;10.886;2024-01-06T12:13:02;8.00;99.90
60701;DHT22;46541;49.894;10.886;2024-01-06T12:15:31;8.00;99.90
60701;DHT22;46541;49.894;10.886;2024-01-06T12:18:02;8.00;99.90
60701;DHT22;46541;49.894;10.886;2024-01-06T12:20:29;8.00;99.90
60701;DHT22;46541;49.894;10.886;2024-01-06T12:22:56;8.00;99.90
60701;DHT22;46541;49.894;10.886;2024-01-06T12:25:23;8.00;99.90
60701;DHT22;46541;49.894;10.886;2024-01-06T12:27:52;8.00;99.90
60701;DHT22;46541;49.894;10.886;2024-01-06T12:30:22;8.00;99.90
60701;DHT22;46541;49.894;10.886;2024-01-06T12:32:50;8.00;99.90
60701;DHT22;46541;49.894;10.886;2024-01-06T12:35:22;8.00;99.90
60701;DHT22;46541;49.894;10.886;2024-01-06T12:37:51;8.00;99.90
60701;DHT22;46541;49.894;10.886;2024-01-06T12:40:18;8.00;99.90
60701;DHT22;46541;49.894;10.886;2024-01-06T12:42:46;7.90;99.90
60701;DHT22;46541;49.894;10.886;2024-01-06T12:45:13;7.90;99.90
60701;DHT22;46541;49.894;10.886;2024-01-06T12:47:42;7.80;99.90
60701;DHT22;46541;49.894;10.886;2024-01-06T12:50:09;7.80;99.90
60701;DHT22;46541;49.894;10.886;2024-01-06T12:52:36;7.80;99.90
60701;DHT22;46541;49.894;10.886;2024-01-06T12:55:06;7.80;99.90
60701;DHT22;46541;49.894;10.886;2024-01-06T12:57:33;7.80;99.90
60701;DHT22;46541;49.894;10.886;2024-01-06T13:00:00;7.80;99.90
60701;DHT22;46541;49.894;10.886;2024-01-06T13:02:27;7.80;99.90
60701;DHT22;46541;49.894;10.886;2024-01-06T13:04:54;7.80;99.90
60701;DHT22;46541;49.894;10.886;2024-01-06T13:07:21;7.80;99.90
60701;DHT22;46541;49.894;10.886;2024-01-06T13:09:48;7.80;99.90
60701;DHT22;46541;49.894;10.886;2024-01-06T13:12:15;7.90;99.90
60701;DHT22;46541;49.894;10.886;2024-01-06T13:14:45;7.90;99.90
60701;DHT22;46541;49.894;10.886;2024-01-06T13:17:13;7.90;99.90
60701;DHT22;46541;49.894;10.886;2024-01-06T13:19:43;7.90;99.90
60701;DHT22;46541;49.894;10.886;2024-01-06T13:22:10;7.80;99.90
60701;DHT22;46541;49.894;10.886;2024-01-06T13:24:37;7.80;99.90
60701;DHT22;46541;49.894;10.886;2024-01-06T13:27:04;7.80;99.90
60701;DHT22;46541;49.894;10.886;2024-01-06T13:29:31;7.80;99.90
60701;DHT22;46541;49.894;10.886;2024-01-06T13:31:58;7.80;99.90
60701;DHT22;46541;49.894;10.886;2024-01-06T13:34:26;7.80;99.90
60701;DHT22;46541;49.894;10.886;2024-01-06T13:36:53;7.90;99.90
60701;DHT22;46541;49.894;10.886;2024-01-06T13:39:23;8.00;99.90
60701;DHT22;46541;49.894;10.886;2024-01-06T13:41:50;7.90;99.90
60701;DHT22;46541;49.894;10.886;2024-01-06T13:44:17;8.00;99.90
60701;DHT22;46541;49.894;10.886;2024-01-06T13:46:44;8.00;99.90
60701;DHT22;46541;49.894;10.886;2024-01-06T13:49:11;7.90;99.90
60701;DHT22;46541;49.894;10.886;2024-01-06T13:51:40;7.90;99.90
60701;DHT22;46541;49.894;10.886;2024-01-06T13:54:07;7.80;99.90
60701;DHT22;46541;49.894;10.886;2024-01-06T13:56:34;7.80;99.90
60701;DHT22;46541;49.894;10.886;2024-01-06T13:59:01;7.80;99.90
60701;DHT22;46541;49.894;10.886;2024-01-06T14:01:27;7.70;99.90
60701;DHT22;46541;49.894;10.886;2024-01-06T14:03:55;7.60;99.90
60701;DHT22;46541;49.894;10.886;2024-01-06T14:06:25;7.70;99.90
60701;DHT22;46541;49.894;10.886;2024-01-06T14:08:52;7.60;99.90
60701;DHT22;46541;49.894;10.886;2024-01-06T14:11:19;7.70;99.90
60701;DHT22;46541;49.894;10.886;2024-01-06T14:13:45;7.70;99.90
60701;DHT22;46541;49.894;10.886;2024-01-06T14:16:16;7.70;99.90
60701;DHT22;46541;49.894;10.886;2024-01-06T14:18:42;7.70;99.90
60701;DHT22;46541;49.894;10.886;2024-01-06T14:21:10;7.70;99.90
60701;DHT22;46541;49.894;10.886;2024-01-06T14:23:37;7.60;99.90
60701;DHT22;46541;49.894;10.886;2024-01-06T14:26:04;7.60;99.90
60701;DHT22;46541;49.894;10.886;2024-01-06T14:28:30;7.60;99.90
60701;DHT22;46541;49.894;10.886;2024-01-06T14:30:57;7.60;99.90
60701;DHT22;46541;49.894;10.886;2024-01-06T14:33:24;7.60;99.90
60701;DHT22;46541;49.894;10.886;2024-01-06T14:35:51;7.60;99.90
60701;DHT22;46541;49.894;10.886;2024-01-06T14:38:18;7.60;99.90
60701;DHT22;46541;49.894;10.886;2024-01-06T14:40:45;7.50;99.90
60701;DHT22;46541;49.894;10.886;2024-01-06T14:43:11;7.50;99.90
60701;DHT22;46541;49.894;10.886;2024-01-06T14:45:38;7.50;99.90
60701;DHT22;46541;49.894;10.886;2024-01-06T14:48:05;7.50;99.90
60701;DHT22;46541;49.894;10.886;2024-01-06T14:50:32;7.50;99.90
60701;DHT22;46541;49.894;10.886;2024-01-06T14:52:59;7.50;99.90
60701;DHT22;46541;49.894;10.886;2024-01-06T14:55:25;7.50;99.90
60701;DHT22;46541;49.894;10.886;2024-01-06T14:57:53;7.50;99.90
60701;DHT22;46541;49.894;10.886;2024-01-06T15:00:20;7.50;99.90
60701;DHT22;46541;49.894;10.886;2024-01-06T15:02:47;7.50;99.90
60701;DHT22;46541;49.894;10.886;2024-01-06T15:05:13;7.50;99.90
60701;DHT22;46541;49.894;10.886;2024-01-06T15:07:40;7.50;99.90
60701;DHT22;46541;49.894;10.886;2024-01-06T15:10:07;7.50;99.90
60701;DHT22;46541;49.894;10.886;2024-01-06T15:12:36;7.60;99.90
60701;DHT22;46541;49.894;10.886;2024-01-06T15:15:03;7.50;99.90
60701;DHT22;46541;49.894;10.886;2024-01-06T15:17:32;7.50;99.90
60701;DHT22;46541;49.894;10.886;2024-01-06T15:19:59;7.50;99.90
60701;DHT22;46541;49.894;10.886;2024-01-06T15:22:27;7.40;99.90
60701;DHT22;46541;49.894;10.886;2024-01-06T15:24:54;7.40;99.90
60701;DHT22;46541;49.894;10.886;2024-01-06T15:27:24;7.40;99.90
60701;DHT22;46541;49.894;10.886;2024-01-06T15:29:51;7.30;99.90
60701;DHT22;46541;49.894;10.886;2024-01-06T15:32:18;7.30;99.90
60701;DHT22;46541;49.894;10.886;2024-01-06T15:34:45;7.30;99.90
60701;DHT22;46541;49.894;10.886;2024-01-06T15:37:12;7.30;99.90
60701;DHT22;46541;49.894;10.886;2024-01-06T15:39:38;7.30;99.90
60701;DHT22;46541;49.894;10.886;2024-01-06T15:42:05;7.30;99.90
60701;DHT22;46541;49.894;10.886;2024-01-06T15:44:32;7.30;99.90